Sardinia, Indiana
Current Conditions -  °F | °C
As of 3:45 PM on Monday 20 Oct 2014 (Local Time) from KBAK Reporting Station
Scattered Clouds Scattered Clouds  
Wind Chill: 66°   Ceiling: Unl
Heat Index: 66°   Visibility: 10mi
Dew Point: 52°   Wind: 14mph
Humidity: 60%   Direction: 260°W
Pressure: 29.86"   Gusts: NA
Location:  39.1743°N, 85.6083°W
Report Text: KBAK 201945Z 26012KT 10SM SCT038 19/11 A2986
Loading
Personal Weather Stations






























Interactive Weather Map
Tropical Storm Tracking
New forecast layout! Learn more

10-Day Weather Forecast

Advertisements
Track Severe Weather on mobile